createdAt,value
2023-03-16T06:40:33.142Z,98467.00
2023-03-16T06:43:02.177Z,98463.00
2023-03-16T06:45:29.809Z,98454.00
2023-03-16T06:47:57.118Z,98458.00
2023-03-16T06:50:24.424Z,98460.00
2023-03-16T06:52:51.778Z,98457.00
2023-03-16T06:55:19.249Z,98451.00
2023-03-16T06:57:47.003Z,98463.00
2023-03-16T07:00:16.603Z,98443.00
2023-03-16T07:02:43.984Z,98446.00
2023-03-16T07:05:15.548Z,98443.00
2023-03-16T07:07:44.251Z,98433.00
2023-03-16T07:10:17.319Z,98423.00
2023-03-16T07:12:45.592Z,98428.00
2023-03-16T07:15:14.363Z,98434.00
2023-03-16T07:17:42.778Z,98417.00
2023-03-16T07:20:12.801Z,98420.00
2023-03-16T07:22:41.829Z,98423.00
2023-03-16T07:25:11.427Z,98412.00
2023-03-16T07:27:38.991Z,98408.00
2023-03-16T07:30:07.599Z,98399.00
2023-03-16T07:32:34.993Z,98390.00
2023-03-16T07:35:02.396Z,98400.00
2023-03-16T07:37:29.804Z,98399.00
2023-03-16T07:39:57.079Z,98408.00
2023-03-16T07:42:24.790Z,98409.00
2023-03-16T07:44:52.943Z,98414.00
2023-03-16T07:47:21.071Z,98427.00
2023-03-16T07:49:48.402Z,98432.00
2023-03-16T07:52:15.723Z,98434.00
2023-03-16T07:54:43.383Z,98437.00
2023-03-16T07:57:11.922Z,98430.00
2023-03-16T07:59:39.381Z,98430.00
2023-03-16T08:02:11.815Z,98443.00
2023-03-16T08:04:42.347Z,98445.00
2023-03-16T08:07:13.186Z,98449.00
2023-03-16T08:09:41.352Z,98435.00
2023-03-16T08:12:10.063Z,98419.00
2023-03-16T08:14:37.759Z,98428.00
2023-03-16T08:17:07.549Z,98427.00
2023-03-16T08:19:35.081Z,98419.00
2023-03-16T08:22:02.453Z,98422.00
2023-03-16T08:24:31.095Z,98411.00
2023-03-16T08:27:00.036Z,98406.00
2023-03-16T08:29:28.453Z,98402.00
2023-03-16T08:31:56.574Z,98402.00
2023-03-16T08:34:25.883Z,98410.00
2023-03-16T08:36:54.099Z,98401.00
2023-03-16T08:39:21.744Z,98407.00
2023-03-16T08:41:49.085Z,98398.00
2023-03-16T08:44:17.524Z,98411.00
2023-03-16T08:46:45.311Z,98415.00
2023-03-16T08:49:13.956Z,98418.00
2023-03-16T08:51:44.775Z,98410.00
2023-03-16T08:54:12.378Z,98404.00
2023-03-16T08:56:39.657Z,98424.00
2023-03-16T08:59:09.010Z,98400.00
2023-03-16T09:01:40.475Z,98406.00
2023-03-16T09:04:07.941Z,98401.00
2023-03-16T09:06:36.167Z,98402.00
2023-03-16T09:09:04.567Z,98398.00
2023-03-16T09:11:33.745Z,98407.00
2023-03-16T09:14:01.344Z,98405.00
2023-03-16T09:16:30.885Z,98397.00
2023-03-16T09:18:58.760Z,98400.00
2023-03-16T09:21:26.617Z,98404.00
2023-03-16T09:23:55.027Z,98391.00
2023-03-16T09:26:22.663Z,98395.00
2023-03-16T09:28:50.026Z,98383.00
2023-03-16T09:31:20.309Z,98382.00
2023-03-16T09:33:48.566Z,98392.00
2023-03-16T09:36:16.553Z,98393.00
2023-03-16T09:38:44.887Z,98381.00
2023-03-16T09:41:51.462Z,98379.00
2023-03-16T09:44:39.965Z,98380.00
2023-03-16T09:47:12.061Z,98369.00
2023-03-16T09:49:50.077Z,98366.00
2023-03-16T09:52:55.464Z,98362.00
2023-03-16T09:55:33.253Z,98363.00
2023-03-16T09:58:05.483Z,98358.00
2023-03-16T10:00:48.789Z,98360.00
2023-03-16T10:03:39.792Z,98363.00
2023-03-16T10:06:13.878Z,98363.00
2023-03-16T10:09:28.811Z,98372.00
2023-03-16T10:11:58.802Z,98360.00
2023-03-16T10:15:04.852Z,98373.00
2023-03-16T10:17:50.064Z,98360.00
2023-03-16T10:20:23.465Z,98375.00
2023-03-16T10:22:54.512Z,98357.00
2023-03-16T10:25:48.652Z,98362.00
2023-03-16T10:28:26.307Z,98357.00
2023-03-16T10:30:59.349Z,98365.00
2023-03-16T10:33:33.743Z,98357.00
2023-03-16T10:36:27.558Z,98364.00
2023-03-16T10:39:04.962Z,98366.00
2023-03-16T10:41:38.663Z,98371.00
2023-03-16T10:44:28.567Z,98349.00
2023-03-16T10:47:08.483Z,98359.00
2023-03-16T10:49:41.949Z,98355.00
2023-03-16T10:52:43.295Z,98347.00
2023-03-16T10:55:29.192Z,98350.00
2023-03-16T10:57:57.337Z,98342.00
2023-03-16T11:00:41.857Z,98349.00
2023-03-16T11:03:41.759Z,98357.00
2023-03-16T11:06:33.415Z,98357.00
2023-03-16T11:09:34.609Z,98363.00
2023-03-16T11:12:31.337Z,98344.00
2023-03-16T11:15:25.923Z,98348.00
2023-03-16T11:17:54.692Z,98349.00
2023-03-16T11:20:32.634Z,98335.00
2023-03-16T11:23:02.552Z,98339.00
2023-03-16T11:25:42.433Z,98331.00
2023-03-16T11:28:29.910Z,98344.00
2023-03-16T11:31:42.826Z,98332.00
2023-03-16T11:34:20.110Z,98331.00
2023-03-16T11:38:09.751Z,98328.00
2023-03-16T11:41:10.812Z,98320.00
2023-03-16T11:43:59.387Z,98287.00
2023-03-16T11:46:55.619Z,98273.00
2023-03-16T11:50:15.706Z,98281.00
2023-03-16T11:54:19.835Z,98266.00
2023-03-16T11:57:59.393Z,98288.00
2023-03-16T12:00:57.781Z,98298.00
2023-03-16T12:04:48.911Z,98285.00
2023-03-16T12:07:55.690Z,98284.00
2023-03-16T12:11:00.264Z,98275.00
2023-03-16T12:14:23.394Z,98281.00
2023-03-16T12:17:15.794Z,98286.00
2023-03-16T12:20:32.089Z,98285.00
2023-03-16T12:23:19.581Z,98272.00
2023-03-16T12:25:50.413Z,98284.00
2023-03-16T12:28:32.203Z,98268.00
2023-03-16T12:31:56.065Z,98267.00
2023-03-16T12:35:00.156Z,98248.00
2023-03-16T12:37:52.320Z,98249.00
2023-03-16T12:40:49.971Z,98246.00
2023-03-16T12:44:08.102Z,98239.00
2023-03-16T12:47:13.120Z,98254.00
2023-03-16T12:49:41.858Z,98239.00
2023-03-16T12:52:14.573Z,98236.00
2023-03-16T12:55:40.333Z,98235.00
2023-03-16T12:58:09.504Z,98234.00
2023-03-16T13:00:42.845Z,98230.00
2023-03-16T13:03:23.132Z,98236.00
2023-03-16T13:06:00.803Z,98259.00
2023-03-16T13:08:28.989Z,98244.00
2023-03-16T13:11:07.365Z,98251.00
2023-03-16T13:13:36.341Z,98228.00
2023-03-16T13:16:22.335Z,98228.00
2023-03-16T13:18:49.834Z,98240.00
2023-03-16T13:21:41.262Z,98235.00
2023-03-16T13:24:35.394Z,98235.00
2023-03-16T13:27:30.083Z,98223.00
2023-03-16T13:30:29.019Z,98226.00
2023-03-16T13:33:22.882Z,98223.00
2023-03-16T13:35:53.565Z,98220.00
2023-03-16T13:38:28.463Z,98211.00
2023-03-16T13:41:09.618Z,98221.00
2023-03-16T13:43:43.916Z,98203.00
2023-03-16T13:46:19.014Z,98200.00
2023-03-16T13:48:49.834Z,98205.00
2023-03-16T13:51:22.769Z,98209.00
2023-03-16T13:53:50.915Z,98215.00
2023-03-16T13:56:27.071Z,98219.00
2023-03-16T13:58:57.081Z,98221.00
2023-03-16T14:01:32.124Z,98205.00
2023-03-16T14:04:11.905Z,98191.00
2023-03-16T14:06:41.391Z,98178.00
2023-03-16T14:09:21.784Z,98188.00
2023-03-16T14:11:49.128Z,98197.00
2023-03-16T14:14:36.806Z,98188.00
2023-03-16T14:17:16.991Z,98179.00
2023-03-16T14:19:59.645Z,98173.00
2023-03-16T14:22:38.393Z,98188.00
2023-03-16T14:25:07.520Z,98178.00
2023-03-16T14:27:40.734Z,98180.00
2023-03-16T14:30:28.008Z,98184.00
2023-03-16T14:33:05.677Z,98167.00
2023-03-16T14:35:44.001Z,98180.00
2023-03-16T14:38:35.287Z,98197.00
2023-03-16T14:41:26.429Z,98185.00
2023-03-16T14:44:01.790Z,98180.00
2023-03-16T14:46:42.881Z,98175.00
2023-03-16T14:49:38.587Z,98174.00
2023-03-16T14:52:29.761Z,98167.00
2023-03-16T14:54:58.269Z,98174.00
2023-03-16T14:57:26.819Z,98163.00
2023-03-16T14:59:55.662Z,98159.00
2023-03-16T15:02:32.720Z,98175.00
2023-03-16T15:05:02.054Z,98166.00
2023-03-16T15:07:35.599Z,98174.00
2023-03-16T15:10:27.409Z,98177.00
2023-03-16T15:12:56.027Z,98175.00
2023-03-16T15:15:27.485Z,98174.00
2023-03-16T15:17:55.120Z,98176.00
2023-03-16T15:20:32.879Z,98173.00
2023-03-16T15:23:01.824Z,98174.00
2023-03-16T15:25:43.247Z,98168.00
2023-03-16T15:28:22.029Z,98173.00
2023-03-16T15:30:53.551Z,98167.00
2023-03-16T15:33:22.181Z,98168.00
2023-03-16T15:35:53.391Z,98167.00
2023-03-16T15:38:39.793Z,98160.00
2023-03-16T15:41:11.548Z,98164.00
2023-03-16T15:43:39.655Z,98164.00
2023-03-16T15:46:07.346Z,98164.00
2023-03-16T15:48:34.821Z,98156.00
2023-03-16T15:51:27.687Z,98163.00
2023-03-16T15:54:06.925Z,98162.00
2023-03-16T15:56:53.162Z,98151.00
2023-03-16T15:59:24.200Z,98147.00
2023-03-16T16:01:52.749Z,98149.00
2023-03-16T16:04:24.357Z,98135.00
2023-03-16T16:06:57.761Z,98152.00
2023-03-16T16:09:25.774Z,98147.00
2023-03-16T16:11:53.117Z,98147.00
2023-03-16T16:14:25.332Z,98149.00
2023-03-16T16:16:54.471Z,98147.00
2023-03-16T16:19:22.147Z,98138.00
2023-03-16T16:21:49.513Z,98135.00
2023-03-16T16:24:18.425Z,98142.00
2023-03-16T16:26:54.312Z,98140.00
2023-03-16T16:29:30.143Z,98144.00
2023-03-16T16:31:57.609Z,98144.00
2023-03-16T16:34:27.031Z,98140.00
2023-03-16T16:36:57.153Z,98139.00
2023-03-16T16:39:25.413Z,98136.00
2023-03-16T16:41:56.413Z,98144.00
2023-03-16T16:44:30.445Z,98137.00
2023-03-16T16:46:59.812Z,98133.00
2023-03-16T16:49:31.297Z,98130.00
2023-03-16T16:51:59.780Z,98134.00
2023-03-16T16:54:31.628Z,98124.00
2023-03-16T16:57:01.212Z,98128.00
2023-03-16T16:59:38.119Z,98129.00
2023-03-16T17:02:42.196Z,98123.00
2023-03-16T17:05:28.435Z,98121.00
2023-03-16T17:07:56.355Z,98127.00
2023-03-16T17:10:27.205Z,98127.00
2023-03-16T17:12:57.114Z,98120.00
2023-03-16T17:15:30.271Z,98126.00
2023-03-16T17:18:14.306Z,98122.00
2023-03-16T17:20:41.988Z,98127.00
2023-03-16T17:23:37.132Z,98135.00
2023-03-16T17:26:39.707Z,98118.00
2023-03-16T17:29:26.987Z,98138.00
2023-03-16T17:31:54.423Z,98141.00
2023-03-16T17:34:27.324Z,98131.00
2023-03-16T17:36:55.793Z,98136.00
2023-03-16T17:39:34.484Z,98136.00
2023-03-16T17:42:19.888Z,98136.00
2023-03-16T17:44:53.274Z,98147.00
2023-03-16T17:47:26.536Z,98141.00
2023-03-16T17:49:55.074Z,98136.00
2023-03-16T17:52:29.197Z,98142.00
2023-03-16T17:54:56.689Z,98144.00
2023-03-16T17:57:34.185Z,98127.00
2023-03-16T18:00:18.356Z,98134.00
2023-03-16T18:03:17.698Z,98132.00
2023-03-16T18:05:46.222Z,98121.00
2023-03-16T18:08:25.975Z,98120.00
2023-03-16T18:11:06.793Z,98128.00
2023-03-16T18:13:39.412Z,98122.00
2023-03-16T18:16:08.255Z,98119.00
2023-03-16T18:18:41.135Z,98123.00
2023-03-16T18:21:19.017Z,98120.00
2023-03-16T18:23:46.715Z,98131.00
2023-03-16T18:26:14.352Z,98127.00
2023-03-16T18:28:42.019Z,98126.00
2023-03-16T18:31:23.912Z,98116.00
2023-03-16T18:33:59.716Z,98119.00
2023-03-16T18:36:37.784Z,98131.00
2023-03-16T18:39:16.215Z,98122.00
2023-03-16T18:41:44.650Z,98124.00
2023-03-16T18:44:21.739Z,98129.00
2023-03-16T18:46:51.823Z,98124.00
2023-03-16T18:49:36.674Z,98117.00
2023-03-16T18:52:16.665Z,98132.00
2023-03-16T18:54:46.216Z,98135.00
2023-03-16T18:57:24.886Z,98141.00
2023-03-16T18:59:52.612Z,98129.00
2023-03-16T19:02:43.133Z,98123.00
2023-03-16T19:05:30.606Z,98132.00
2023-03-16T19:07:58.074Z,98121.00
2023-03-16T19:10:38.637Z,98130.00
2023-03-16T19:13:17.266Z,98125.00
2023-03-16T19:15:45.767Z,98125.00
2023-03-16T19:18:13.244Z,98122.00
2023-03-16T19:20:43.689Z,98107.00
2023-03-16T19:23:32.961Z,98122.00
2023-03-16T19:26:00.674Z,98124.00
2023-03-16T19:28:39.062Z,98121.00
2023-03-16T19:31:30.287Z,98120.00
2023-03-16T19:33:58.581Z,98116.00
2023-03-16T19:36:30.560Z,98124.00
2023-03-16T19:38:59.595Z,98123.00
2023-03-16T19:41:37.160Z,98120.00
2023-03-16T19:44:19.833Z,98115.00
2023-03-16T19:46:48.809Z,98117.00
2023-03-16T19:49:24.855Z,98121.00
2023-03-16T19:51:55.192Z,98120.00
2023-03-16T19:54:32.137Z,98117.00
2023-03-16T19:57:11.411Z,98123.00
2023-03-16T19:59:40.325Z,98117.00
2023-03-16T20:02:40.694Z,98110.00
2023-03-16T20:05:23.535Z,98107.00
2023-03-16T20:07:51.557Z,98114.00
2023-03-16T20:10:32.585Z,98102.00
2023-03-16T20:13:01.717Z,98101.00
2023-03-16T20:15:32.646Z,98099.00
2023-03-16T20:18:01.239Z,98107.00
2023-03-16T20:20:37.517Z,98102.00
2023-03-16T20:23:29.333Z,98100.00
2023-03-16T20:26:02.777Z,98102.00
2023-03-16T20:28:36.304Z,98094.00
2023-03-16T20:31:16.119Z,98108.00
2023-03-16T20:33:43.471Z,98104.00
2023-03-16T20:36:15.991Z,98090.00
2023-03-16T20:38:43.613Z,98095.00
2023-03-16T20:41:30.409Z,98089.00
2023-03-16T20:44:01.781Z,98097.00
2023-03-16T20:46:33.007Z,98092.00
2023-03-16T20:49:00.890Z,98091.00
2023-03-16T20:51:28.927Z,98082.00
2023-03-16T20:53:56.280Z,98090.00
2023-03-16T20:56:26.634Z,98096.00
2023-03-16T20:58:56.154Z,98076.00
2023-03-16T21:01:24.625Z,98084.00
2023-03-16T21:03:55.665Z,98086.00
2023-03-16T21:06:31.687Z,98080.00
2023-03-16T21:09:03.340Z,98084.00
2023-03-16T21:11:38.847Z,98078.00
2023-03-16T21:14:22.041Z,98084.00
2023-03-16T21:16:50.986Z,98082.00
2023-03-16T21:19:23.421Z,98088.00
2023-03-16T21:21:51.508Z,98080.00
2023-03-16T21:24:18.840Z,98082.00
2023-03-16T21:26:47.543Z,98082.00
2023-03-16T21:29:23.824Z,98080.00
2023-03-16T21:31:51.830Z,98073.00
2023-03-16T21:34:29.456Z,98079.00
2023-03-16T21:36:56.752Z,98074.00
2023-03-16T21:39:25.356Z,98079.00
2023-03-16T21:41:53.580Z,98075.00
2023-03-16T21:44:21.290Z,98076.00
2023-03-16T21:46:48.842Z,98069.00
2023-03-16T21:49:16.433Z,98068.00
2023-03-16T21:51:44.023Z,98054.00
2023-03-16T21:54:17.954Z,98050.00
2023-03-16T21:56:47.748Z,98049.00
2023-03-16T21:59:15.564Z,98048.00
2023-03-16T22:01:58.657Z,98040.00
2023-03-16T22:04:28.013Z,98039.00
2023-03-16T22:06:55.716Z,98037.00
2023-03-16T22:09:24.923Z,98041.00
2023-03-16T22:11:52.330Z,98028.00
2023-03-16T22:14:19.636Z,98018.00
2023-03-16T22:16:46.986Z,98016.00
2023-03-16T22:19:15.888Z,98016.00
2023-03-16T22:21:46.551Z,98014.00
2023-03-16T22:24:26.410Z,98016.00
2023-03-16T22:26:54.937Z,98000.00
2023-03-16T22:29:31.283Z,98007.00
2023-03-16T22:32:08.544Z,98004.00
2023-03-16T22:34:56.475Z,98005.00
2023-03-16T22:37:28.699Z,97993.00
2023-03-16T22:39:58.452Z,98001.00
2023-03-16T22:42:38.816Z,97990.00
2023-03-16T22:45:26.937Z,98002.00
2023-03-16T22:47:57.544Z,97998.00
2023-03-16T22:50:28.312Z,97996.00
2023-03-16T22:53:04.188Z,98003.00
2023-03-16T22:55:39.341Z,98002.00
2023-03-16T22:58:38.415Z,98006.00
2023-03-16T23:01:48.610Z,98006.00
2023-03-16T23:04:30.281Z,98011.00
2023-03-16T23:06:59.100Z,98008.00
2023-03-16T23:09:26.567Z,98010.00
2023-03-16T23:11:56.554Z,98002.00
2023-03-16T23:14:30.517Z,98006.00
2023-03-16T23:16:57.877Z,98002.00
2023-03-16T23:19:34.160Z,98005.00
2023-03-16T23:22:06.843Z,98003.00
2023-03-16T23:24:36.376Z,98003.00
2023-03-16T23:27:07.322Z,97989.00
2023-03-16T23:29:34.686Z,97990.00
2023-03-16T23:32:02.365Z,97989.00
2023-03-16T23:34:29.725Z,97992.00
2023-03-16T23:36:57.044Z,97986.00
2023-03-16T23:39:24.364Z,97985.00
2023-03-16T23:41:52.989Z,97981.00
2023-03-16T23:44:27.397Z,97980.00
2023-03-16T23:46:54.945Z,97985.00
